sensor_id;sensor_type;location;lat;lon;timestamp;pressure;altitude;pressure_sealevel;temperature;humidity
49827;BME280;35715;51.570;6.036;2023-06-14T00:00:33;101268.44;;;21.10;43.37
49827;BME280;35715;51.570;6.036;2023-06-14T00:05:47;101269.91;;;21.00;44.18
49827;BME280;35715;51.570;6.036;2023-06-14T00:08:13;101279.50;;;21.00;43.84
49827;BME280;35715;51.570;6.036;2023-06-14T00:10:57;101278.50;;;20.96;43.86
49827;BME280;35715;51.570;6.036;2023-06-14T00:13:23;101279.38;;;20.97;44.38
49827;BME280;35715;51.570;6.036;2023-06-14T00:15:48;101282.06;;;20.98;44.53
49827;BME280;35715;51.570;6.036;2023-06-14T00:18:14;101290.03;;;21.01;44.33
49827;BME280;35715;51.570;6.036;2023-06-14T00:20:40;101287.25;;;20.97;43.77
49827;BME280;35715;51.570;6.036;2023-06-14T00:25:52;101294.09;;;20.91;43.24
49827;BME280;35715;51.570;6.036;2023-06-14T00:28:17;101289.53;;;20.86;43.04
49827;BME280;35715;51.570;6.036;2023-06-14T00:33:26;101296.31;;;20.79;43.92
49827;BME280;35715;51.570;6.036;2023-06-14T00:36:11;101294.47;;;20.77;43.63
49827;BME280;35715;51.570;6.036;2023-06-14T00:38:36;101293.59;;;20.76;43.43
49827;BME280;35715;51.570;6.036;2023-06-14T00:41:01;101288.25;;;20.73;44.02
49827;BME280;35715;51.570;6.036;2023-06-14T00:46:30;101293.16;;;20.64;44.12
49827;BME280;35715;51.570;6.036;2023-06-14T00:48:56;101299.19;;;20.61;42.31
49827;BME280;35715;51.570;6.036;2023-06-14T00:51:23;101299.81;;;20.54;43.29
49827;BME280;35715;51.570;6.036;2023-06-14T00:53:53;101297.88;;;20.48;42.85
49827;BME280;35715;51.570;6.036;2023-06-14T00:56:19;101301.25;;;20.44;43.09
49827;BME280;35715;51.570;6.036;2023-06-14T01:01:30;101306.31;;;20.39;43.69
49827;BME280;35715;51.570;6.036;2023-06-14T01:04:09;101307.03;;;20.35;43.28
49827;BME280;35715;51.570;6.036;2023-06-14T01:06:43;101307.75;;;20.31;43.57
49827;BME280;35715;51.570;6.036;2023-06-14T01:09:18;101311.25;;;20.30;43.76
49827;BME280;35715;51.570;6.036;2023-06-14T01:12:19;101311.06;;;20.26;43.47
49827;BME280;35715;51.570;6.036;2023-06-14T01:14:48;101314.38;;;20.20;42.94
49827;BME280;35715;51.570;6.036;2023-06-14T01:17:14;101310.72;;;20.16;43.28
49827;BME280;35715;51.570;6.036;2023-06-14T01:19:45;101311.31;;;20.08;43.28
49827;BME280;35715;51.570;6.036;2023-06-14T01:22:12;101311.06;;;20.01;43.81
49827;BME280;35715;51.570;6.036;2023-06-14T01:24:37;101310.06;;;19.98;43.50
49827;BME280;35715;51.570;6.036;2023-06-14T01:27:05;101315.34;;;19.99;43.94
49827;BME280;35715;51.570;6.036;2023-06-14T01:29:33;101309.19;;;19.97;43.63
49827;BME280;35715;51.570;6.036;2023-06-14T01:32:12;101309.72;;;19.89;44.28
49827;BME280;35715;51.570;6.036;2023-06-14T01:34:37;101306.19;;;19.87;43.42
49827;BME280;35715;51.570;6.036;2023-06-14T01:37:03;101310.50;;;19.86;43.55
49827;BME280;35715;51.570;6.036;2023-06-14T01:39:29;101315.69;;;19.84;44.04
49827;BME280;35715;51.570;6.036;2023-06-14T01:41:55;101318.34;;;19.86;44.80
49827;BME280;35715;51.570;6.036;2023-06-14T01:44:23;101313.91;;;19.83;44.35
49827;BME280;35715;51.570;6.036;2023-06-14T01:46:50;101313.91;;;19.83;45.08
49827;BME280;35715;51.570;6.036;2023-06-14T01:49:16;101318.19;;;19.81;45.31
49827;BME280;35715;51.570;6.036;2023-06-14T01:51:41;101316.38;;;19.79;45.03
49827;BME280;35715;51.570;6.036;2023-06-14T01:54:34;101314.44;;;19.75;45.45
49827;BME280;35715;51.570;6.036;2023-06-14T01:56:59;101312.56;;;19.72;45.54
49827;BME280;35715;51.570;6.036;2023-06-14T01:59:24;101306.41;;;19.70;45.49
49827;BME280;35715;51.570;6.036;2023-06-14T02:01:50;101313.28;;;19.68;45.54
49827;BME280;35715;51.570;6.036;2023-06-14T02:04:16;101314.91;;;19.64;45.51
49827;BME280;35715;51.570;6.036;2023-06-14T02:06:41;101319.13;;;19.61;45.62
49827;BME280;35715;51.570;6.036;2023-06-14T02:09:07;101312.88;;;19.57;45.61
49827;BME280;35715;51.570;6.036;2023-06-14T02:11:32;101312.75;;;19.54;45.63
49827;BME280;35715;51.570;6.036;2023-06-14T02:13:58;101308.31;;;19.52;45.54
49827;BME280;35715;51.570;6.036;2023-06-14T02:16:25;101310.88;;;19.50;45.75
49827;BME280;35715;51.570;6.036;2023-06-14T02:18:53;101306.34;;;19.46;45.47
49827;BME280;35715;51.570;6.036;2023-06-14T02:21:18;101310.63;;;19.44;45.83
49827;BME280;35715;51.570;6.036;2023-06-14T02:23:43;101305.25;;;19.41;45.40
49827;BME280;35715;51.570;6.036;2023-06-14T02:26:09;101303.38;;;19.37;45.12
49827;BME280;35715;51.570;6.036;2023-06-14T02:28:34;101309.38;;;19.34;45.38
49827;BME280;35715;51.570;6.036;2023-06-14T02:31:00;101310.13;;;19.31;45.51
49827;BME280;35715;51.570;6.036;2023-06-14T02:33:27;101316.16;;;19.29;45.63
49827;BME280;35715;51.570;6.036;2023-06-14T02:35:52;101317.03;;;19.29;45.56
49827;BME280;35715;51.570;6.036;2023-06-14T02:38:18;101316.03;;;19.26;45.25
49827;BME280;35715;51.570;6.036;2023-06-14T02:40:43;101320.25;;;19.22;45.05
49827;BME280;35715;51.570;6.036;2023-06-14T02:43:32;101320.00;;;19.16;45.56
49827;BME280;35715;51.570;6.036;2023-06-14T02:45:58;101319.69;;;19.08;45.38
49827;BME280;35715;51.570;6.036;2023-06-14T02:51:08;101317.72;;;19.03;46.09
49827;BME280;35715;51.570;6.036;2023-06-14T02:53:36;101322.88;;;19.01;46.42
49827;BME280;35715;51.570;6.036;2023-06-14T02:56:02;101326.34;;;19.00;46.49
49827;BME280;35715;51.570;6.036;2023-06-14T02:58:29;101322.75;;;18.98;46.07
49827;BME280;35715;51.570;6.036;2023-06-14T03:01:13;101335.72;;;18.95;46.26
49827;BME280;35715;51.570;6.036;2023-06-14T03:03:47;101330.22;;;18.89;46.65
49827;BME280;35715;51.570;6.036;2023-06-14T03:06:13;101333.66;;;18.88;47.14
49827;BME280;35715;51.570;6.036;2023-06-14T03:08:40;101336.28;;;18.88;47.18
49827;BME280;35715;51.570;6.036;2023-06-14T03:11:07;101342.34;;;18.87;46.62
49827;BME280;35715;51.570;6.036;2023-06-14T03:13:34;101342.28;;;18.85;46.74
49827;BME280;35715;51.570;6.036;2023-06-14T03:15:59;101347.34;;;18.82;46.76
49827;BME280;35715;51.570;6.036;2023-06-14T03:18:43;101346.38;;;18.80;46.57
49827;BME280;35715;51.570;6.036;2023-06-14T03:21:08;101347.72;;;18.70;46.70
49827;BME280;35715;51.570;6.036;2023-06-14T03:23:44;101352.75;;;18.66;46.62
49827;BME280;35715;51.570;6.036;2023-06-14T03:26:09;101344.06;;;18.67;46.89
49827;BME280;35715;51.570;6.036;2023-06-14T03:28:38;101355.25;;;18.62;47.20
49827;BME280;35715;51.570;6.036;2023-06-14T03:31:03;101358.59;;;18.60;47.16
49827;BME280;35715;51.570;6.036;2023-06-14T03:33:45;101359.28;;;18.56;46.88
49827;BME280;35715;51.570;6.036;2023-06-14T03:36:10;101362.75;;;18.55;47.40
49827;BME280;35715;51.570;6.036;2023-06-14T03:38:36;101362.56;;;18.50;47.29
49827;BME280;35715;51.570;6.036;2023-06-14T03:41:01;101362.56;;;18.50;47.12
49827;BME280;35715;51.570;6.036;2023-06-14T03:43:41;101375.63;;;18.50;48.01
49827;BME280;35715;51.570;6.036;2023-06-14T03:46:06;101371.34;;;18.52;47.66
49827;BME280;35715;51.570;6.036;2023-06-14T03:48:32;101367.72;;;18.49;47.75
49827;BME280;35715;51.570;6.036;2023-06-14T03:50:57;101373.91;;;18.51;47.50
49827;BME280;35715;51.570;6.036;2023-06-14T03:53:26;101373.16;;;18.53;48.10
49827;BME280;35715;51.570;6.036;2023-06-14T03:56:14;101374.84;;;18.53;48.77
49827;BME280;35715;51.570;6.036;2023-06-14T03:58:39;101373.22;;;18.55;48.63
49827;BME280;35715;51.570;6.036;2023-06-14T04:01:05;101374.91;;;18.54;48.60
49827;BME280;35715;51.570;6.036;2023-06-14T04:03:34;101377.31;;;18.50;48.49
49827;BME280;35715;51.570;6.036;2023-06-14T04:06:00;101380.00;;;18.51;48.88
49827;BME280;35715;51.570;6.036;2023-06-14T04:08:44;101386.81;;;18.48;47.89
49827;BME280;35715;51.570;6.036;2023-06-14T04:11:10;101382.34;;;18.45;48.08
49827;BME280;35715;51.570;6.036;2023-06-14T04:13:54;101384.34;;;18.31;48.64
49827;BME280;35715;51.570;6.036;2023-06-14T04:16:21;101386.09;;;18.31;47.95
49827;BME280;35715;51.570;6.036;2023-06-14T04:19:06;101391.09;;;18.26;48.11
49827;BME280;35715;51.570;6.036;2023-06-14T04:21:31;101397.28;;;18.28;48.57
49827;BME280;35715;51.570;6.036;2023-06-14T04:24:18;101386.75;;;18.26;48.37
49827;BME280;35715;51.570;6.036;2023-06-14T04:26:44;101400.84;;;18.30;48.61
49827;BME280;35715;51.570;6.036;2023-06-14T04:29:11;101391.44;;;18.34;48.59
49827;BME280;35715;51.570;6.036;2023-06-14T04:31:39;101392.31;;;18.34;48.75
49827;BME280;35715;51.570;6.036;2023-06-14T04:34:10;101403.78;;;18.38;48.80
49827;BME280;35715;51.570;6.036;2023-06-14T04:36:41;101403.78;;;18.38;49.12
49827;BME280;35715;51.570;6.036;2023-06-14T04:39:08;101412.41;;;18.35;48.96
49827;BME280;35715;51.570;6.036;2023-06-14T04:44:22;101412.47;;;18.37;49.69
49827;BME280;35715;51.570;6.036;2023-06-14T04:46:49;101410.81;;;18.39;49.33
49827;BME280;35715;51.570;6.036;2023-06-14T04:49:15;101409.31;;;18.44;49.71
49827;BME280;35715;51.570;6.036;2023-06-14T04:51:41;101407.66;;;18.46;49.48
49827;BME280;35715;51.570;6.036;2023-06-14T04:54:14;101406.13;;;18.51;50.11
49827;BME280;35715;51.570;6.036;2023-06-14T04:59:47;101404.97;;;18.44;50.04
49827;BME280;35715;51.570;6.036;2023-06-14T05:05:12;101410.88;;;18.40;49.72
49827;BME280;35715;51.570;6.036;2023-06-14T05:07:56;101416.25;;;18.43;49.76
49827;BME280;35715;51.570;6.036;2023-06-14T05:10:21;101412.94;;;18.48;50.29
49827;BME280;35715;51.570;6.036;2023-06-14T05:13:16;101417.16;;;18.44;50.54
49827;BME280;35715;51.570;6.036;2023-06-14T05:15:48;101422.53;;;18.47;50.00
49827;BME280;35715;51.570;6.036;2023-06-14T05:18:14;101427.38;;;18.59;50.23
49827;BME280;35715;51.570;6.036;2023-06-14T05:20:40;101427.56;;;18.63;49.81
49827;BME280;35715;51.570;6.036;2023-06-14T05:23:26;101435.47;;;18.65;49.77
49827;BME280;35715;51.570;6.036;2023-06-14T05:26:03;101430.47;;;18.70;49.57
49827;BME280;35715;51.570;6.036;2023-06-14T05:28:34;101434.75;;;18.68;48.38
49827;BME280;35715;51.570;6.036;2023-06-14T05:31:01;101429.50;;;18.68;50.24
49827;BME280;35715;51.570;6.036;2023-06-14T05:33:29;101433.31;;;18.74;50.38
49827;BME280;35715;51.570;6.036;2023-06-14T05:35:55;101433.50;;;18.79;49.66
49827;BME280;35715;51.570;6.036;2023-06-14T05:38:23;101434.53;;;18.83;49.53
49827;BME280;35715;51.570;6.036;2023-06-14T05:40:49;101439.22;;;18.90;48.74
49827;BME280;35715;51.570;6.036;2023-06-14T05:43:21;101443.91;;;18.97;49.20
49827;BME280;35715;51.570;6.036;2023-06-14T05:45:49;101440.50;;;19.00;48.71
49827;BME280;35715;51.570;6.036;2023-06-14T05:48:33;101443.81;;;18.95;48.09
49827;BME280;35715;51.570;6.036;2023-06-14T05:50:59;101453.78;;;19.04;48.12
49827;BME280;35715;51.570;6.036;2023-06-14T05:53:25;101455.63;;;19.07;47.86
49827;BME280;35715;51.570;6.036;2023-06-14T05:55:50;101448.66;;;19.07;47.85
49827;BME280;35715;51.570;6.036;2023-06-14T05:58:37;101449.72;;;19.11;47.63
49827;BME280;35715;51.570;6.036;2023-06-14T06:01:03;101450.09;;;19.20;47.87
49827;BME280;35715;51.570;6.036;2023-06-14T06:03:31;101449.53;;;19.27;47.76
49827;BME280;35715;51.570;6.036;2023-06-14T06:05:56;101458.41;;;19.31;47.84
49827;BME280;35715;51.570;6.036;2023-06-14T06:08:41;101453.41;;;19.58;47.81
49827;BME280;35715;51.570;6.036;2023-06-14T06:11:25;101452.22;;;20.16;45.90
49827;BME280;35715;51.570;6.036;2023-06-14T06:14:09;101453.06;;;20.62;45.37
49827;BME280;35715;51.570;6.036;2023-06-14T06:16:34;101459.00;;;21.06;45.29
49827;BME280;35715;51.570;6.036;2023-06-14T06:19:00;101458.28;;;21.36;43.23
49827;BME280;35715;51.570;6.036;2023-06-14T06:21:26;101462.06;;;21.72;42.67
49827;BME280;35715;51.570;6.036;2023-06-14T06:23:51;101457.44;;;21.92;41.75
49827;BME280;35715;51.570;6.036;2023-06-14T06:26:16;101459.59;;;22.05;41.00
49827;BME280;35715;51.570;6.036;2023-06-14T06:28:42;101456.59;;;22.50;41.39
49827;BME280;35715;51.570;6.036;2023-06-14T06:31:08;101462.13;;;22.93;40.98
49827;BME280;35715;51.570;6.036;2023-06-14T06:34:23;101468.38;;;22.97;39.86
49827;BME280;35715;51.570;6.036;2023-06-14T06:37:20;101474.13;;;23.14;39.55
49827;BME280;35715;51.570;6.036;2023-06-14T06:39:45;101470.25;;;23.34;38.51
49827;BME280;35715;51.570;6.036;2023-06-14T06:42:12;101475.91;;;23.50;38.76
49827;BME280;35715;51.570;6.036;2023-06-14T06:44:37;101474.75;;;23.75;38.18
49827;BME280;35715;51.570;6.036;2023-06-14T06:47:21;101478.47;;;23.83;37.51
49827;BME280;35715;51.570;6.036;2023-06-14T06:49:48;101485.19;;;24.08;37.79
49827;BME280;35715;51.570;6.036;2023-06-14T06:52:13;101479.88;;;24.48;38.11
49827;BME280;35715;51.570;6.036;2023-06-14T06:57:23;101480.31;;;24.67;36.07
49827;BME280;35715;51.570;6.036;2023-06-14T06:59:49;101486.19;;;24.99;36.13
49827;BME280;35715;51.570;6.036;2023-06-14T07:02:22;101486.47;;;25.14;35.03
49827;BME280;35715;51.570;6.036;2023-06-14T07:04:47;101491.81;;;25.18;35.35
49827;BME280;35715;51.570;6.036;2023-06-14T07:07:12;101495.88;;;25.46;35.76
49827;BME280;35715;51.570;6.036;2023-06-14T07:09:38;101492.53;;;26.16;34.19
49827;BME280;35715;51.570;6.036;2023-06-14T07:12:19;101499.25;;;26.58;33.31
49827;BME280;35715;51.570;6.036;2023-06-14T07:14:45;101502.13;;;26.75;32.64
49827;BME280;35715;51.570;6.036;2023-06-14T07:17:10;101510.34;;;26.97;34.29
49827;BME280;35715;51.570;6.036;2023-06-14T07:19:54;101504.28;;;27.13;31.25
49827;BME280;35715;51.570;6.036;2023-06-14T07:22:57;101518.56;;;27.26;31.62
49827;BME280;35715;51.570;6.036;2023-06-14T07:25:22;101504.63;;;27.44;31.82
49827;BME280;35715;51.570;6.036;2023-06-14T07:28:06;101508.56;;;26.96;30.89
49827;BME280;35715;51.570;6.036;2023-06-14T07:30:32;101501.75;;;27.21;31.43
49827;BME280;35715;51.570;6.036;2023-06-14T07:32:59;101513.47;;;27.44;31.26
49827;BME280;35715;51.570;6.036;2023-06-14T07:35:25;101503.94;;;27.68;30.96
49827;BME280;35715;51.570;6.036;2023-06-14T07:37:50;101505.44;;;27.35;30.92
49827;BME280;35715;51.570;6.036;2023-06-14T07:40:16;101513.41;;;27.40;30.79
49827;BME280;35715;51.570;6.036;2023-06-14T07:43:16;101509.16;;;27.57;31.39
49827;BME280;35715;51.570;6.036;2023-06-14T07:45:41;101514.69;;;27.91;31.08
49827;BME280;35715;51.570;6.036;2023-06-14T07:48:07;101518.28;;;27.95;30.93
49827;BME280;35715;51.570;6.036;2023-06-14T07:50:32;101521.66;;;27.71;29.57
49827;BME280;35715;51.570;6.036;2023-06-14T07:52:58;101521.59;;;27.66;29.45
49827;BME280;35715;51.570;6.036;2023-06-14T07:55:23;101526.03;;;27.70;28.71
49827;BME280;35715;51.570;6.036;2023-06-14T07:57:50;101525.09;;;27.62;29.07
49827;BME280;35715;51.570;6.036;2023-06-14T08:00:16;101532.22;;;27.68;29.67
49827;BME280;35715;51.570;6.036;2023-06-14T08:02:45;101523.56;;;27.93;29.43
49827;BME280;35715;51.570;6.036;2023-06-14T08:05:11;101531.72;;;28.18;28.28
49827;BME280;35715;51.570;6.036;2023-06-14T08:07:38;101524.78;;;28.46;27.44
49827;BME280;35715;51.570;6.036;2023-06-14T08:10:07;101531.63;;;28.04;27.29
49827;BME280;35715;51.570;6.036;2023-06-14T08:12:33;101528.19;;;28.22;27.25
49827;BME280;35715;51.570;6.036;2023-06-14T08:17:43;101527.38;;;28.37;27.48
49827;BME280;35715;51.570;6.036;2023-06-14T08:20:27;101523.13;;;28.72;27.76
49827;BME280;35715;51.570;6.036;2023-06-14T08:23:18;101529.38;;;28.81;26.27
49827;BME280;35715;51.570;6.036;2023-06-14T08:25:46;101534.78;;;29.31;26.66
49827;BME280;35715;51.570;6.036;2023-06-14T08:28:29;101532.03;;;28.81;26.05
49827;BME280;35715;51.570;6.036;2023-06-14T08:30:55;101531.19;;;29.04;26.69
49827;BME280;35715;51.570;6.036;2023-06-14T08:33:22;101531.25;;;29.44;26.69
49827;BME280;35715;51.570;6.036;2023-06-14T08:35:47;101533.03;;;29.62;25.89
49827;BME280;35715;51.570;6.036;2023-06-14T08:38:13;101517.06;;;29.88;25.22
49827;BME280;35715;51.570;6.036;2023-06-14T08:40:39;101542.81;;;29.52;25.22
49827;BME280;35715;51.570;6.036;2023-06-14T08:43:28;101529.47;;;29.99;25.50
49827;BME280;35715;51.570;6.036;2023-06-14T08:46:00;101528.47;;;30.51;24.50
49827;BME280;35715;51.570;6.036;2023-06-14T08:48:26;101529.16;;;30.90;25.06
49827;BME280;35715;51.570;6.036;2023-06-14T08:50:56;101530.31;;;30.22;24.65
49827;BME280;35715;51.570;6.036;2023-06-14T08:53:33;101527.63;;;30.33;24.10
49827;BME280;35715;51.570;6.036;2023-06-14T08:58:47;101520.19;;;31.06;24.56
49827;BME280;35715;51.570;6.036;2023-06-14T09:01:14;101526.59;;;30.71;24.36
49827;BME280;35715;51.570;6.036;2023-06-14T09:03:48;101530.19;;;30.64;23.44
49827;BME280;35715;51.570;6.036;2023-06-14T09:06:14;101521.06;;;31.07;23.10
49827;BME280;35715;51.570;6.036;2023-06-14T09:08:44;101523.69;;;31.19;23.92
49827;BME280;35715;51.570;6.036;2023-06-14T09:11:14;101530.69;;;31.36;23.09
49827;BME280;35715;51.570;6.036;2023-06-14T09:13:59;101530.75;;;31.20;23.97
49827;BME280;35715;51.570;6.036;2023-06-14T09:16:25;101529.81;;;31.30;23.36
49827;BME280;35715;51.570;6.036;2023-06-14T09:18:51;101533.19;;;31.54;24.59
49827;BME280;35715;51.570;6.036;2023-06-14T09:21:17;101534.94;;;31.61;23.40
49827;BME280;35715;51.570;6.036;2023-06-14T09:23:46;101535.03;;;31.43;22.68
49827;BME280;35715;51.570;6.036;2023-06-14T09:26:18;101538.94;;;30.89;22.82
49827;BME280;35715;51.570;6.036;2023-06-14T09:28:49;101537.63;;;31.61;23.47
49827;BME280;35715;51.570;6.036;2023-06-14T09:31:21;101531.41;;;31.53;23.38
49827;BME280;35715;51.570;6.036;2023-06-14T09:33:53;101540.56;;;31.17;22.51
49827;BME280;35715;51.570;6.036;2023-06-14T09:36:23;101532.44;;;31.34;23.24
49827;BME280;35715;51.570;6.036;2023-06-14T09:38:55;101537.09;;;31.10;23.01
49827;BME280;35715;51.570;6.036;2023-06-14T09:41:40;101533.47;;;31.14;23.41
49827;BME280;35715;51.570;6.036;2023-06-14T09:44:11;101537.88;;;31.21;23.51
49827;BME280;35715;51.570;6.036;2023-06-14T09:46:37;101537.03;;;31.18;23.90
49827;BME280;35715;51.570;6.036;2023-06-14T09:49:21;101539.63;;;31.28;23.63
49827;BME280;35715;51.570;6.036;2023-06-14T09:51:50;101533.97;;;31.69;23.37
49827;BME280;35715;51.570;6.036;2023-06-14T09:54:22;101525.97;;;31.67;23.28
49827;BME280;35715;51.570;6.036;2023-06-14T09:56:51;101539.41;;;31.56;22.58
49827;BME280;35715;51.570;6.036;2023-06-14T09:59:21;101536.47;;;31.85;23.41
49827;BME280;35715;51.570;6.036;2023-06-14T10:02:09;101538.66;;;31.34;22.84
49827;BME280;35715;51.570;6.036;2023-06-14T10:05:04;101534.16;;;31.44;23.45
49827;BME280;35715;51.570;6.036;2023-06-14T10:07:55;101535.44;;;30.75;24.01
49827;BME280;35715;51.570;6.036;2023-06-14T10:10:24;101531.47;;;31.47;23.89
49827;BME280;35715;51.570;6.036;2023-06-14T10:13:03;101541.03;;;31.76;22.71
49827;BME280;35715;51.570;6.036;2023-06-14T10:15:50;101541.06;;;31.71;23.33
49827;BME280;35715;51.570;6.036;2023-06-14T10:21:18;101535.88;;;31.51;22.35
49827;BME280;35715;51.570;6.036;2023-06-14T10:23:49;101527.47;;;31.96;24.01
49827;BME280;35715;51.570;6.036;2023-06-14T10:26:23;101531.44;;;31.55;23.22
49827;BME280;35715;51.570;6.036;2023-06-14T10:29:07;101528.63;;;31.69;22.96
49827;BME280;35715;51.570;6.036;2023-06-14T10:31:55;101524.63;;;31.09;23.59
49827;BME280;35715;51.570;6.036;2023-06-14T10:34:25;101536.22;;;31.02;24.64
49827;BME280;35715;51.570;6.036;2023-06-14T10:37:03;101525.56;;;31.03;24.97
49827;BME280;35715;51.570;6.036;2023-06-14T10:39:29;101535.69;;;31.74;24.31
49827;BME280;35715;51.570;6.036;2023-06-14T10:41:56;101519.03;;;32.37;23.84
49827;BME280;35715;51.570;6.036;2023-06-14T10:46:53;101521.84;;;32.25;23.02
49827;BME280;35715;51.570;6.036;2023-06-14T10:49:20;101532.84;;;31.91;24.21
49827;BME280;35715;51.570;6.036;2023-06-14T10:52:05;101529.00;;;32.22;23.69
49827;BME280;35715;51.570;6.036;2023-06-14T10:54:31;101537.38;;;31.86;24.04
49827;BME280;35715;51.570;6.036;2023-06-14T10:56:58;101527.25;;;32.21;24.37
49827;BME280;35715;51.570;6.036;2023-06-14T10:59:24;101529.06;;;32.15;23.55
49827;BME280;35715;51.570;6.036;2023-06-14T11:04:52;101515.44;;;32.42;23.63
49827;BME280;35715;51.570;6.036;2023-06-14T11:12:45;101528.06;;;32.27;23.02
49827;BME280;35715;51.570;6.036;2023-06-14T11:15:12;101524.50;;;32.28;22.84
49827;BME280;35715;51.570;6.036;2023-06-14T11:17:38;101518.00;;;32.49;22.90
49827;BME280;35715;51.570;6.036;2023-06-14T11:20:24;101524.75;;;32.00;21.16
49827;BME280;35715;51.570;6.036;2023-06-14T11:22:50;101520.19;;;32.16;22.24
49827;BME280;35715;51.570;6.036;2023-06-14T11:25:16;101525.47;;;32.21;22.54
49827;BME280;35715;51.570;6.036;2023-06-14T11:27:42;101522.47;;;32.46;22.74
49827;BME280;35715;51.570;6.036;2023-06-14T11:30:08;101533.22;;;32.43;22.48
49827;BME280;35715;51.570;6.036;2023-06-14T11:32:40;101524.06;;;31.83;22.00
49827;BME280;35715;51.570;6.036;2023-06-14T11:35:06;101526.00;;;31.65;23.20
49827;BME280;35715;51.570;6.036;2023-06-14T11:37:32;101526.97;;;31.55;23.30
49827;BME280;35715;51.570;6.036;2023-06-14T11:40:03;101532.56;;;31.20;24.20
49827;BME280;35715;51.570;6.036;2023-06-14T11:42:36;101516.91;;;30.52;24.55
49827;BME280;35715;51.570;6.036;2023-06-14T11:45:02;101525.94;;;30.03;24.44
49827;BME280;35715;51.570;6.036;2023-06-14T11:47:32;101525.94;;;29.69;25.07
49827;BME280;35715;51.570;6.036;2023-06-14T11:49:58;101510.75;;;30.47;23.98
49827;BME280;35715;51.570;6.036;2023-06-14T11:52:25;101514.22;;;30.63;23.24
49827;BME280;35715;51.570;6.036;2023-06-14T11:54:51;101529.25;;;30.76;22.99
49827;BME280;35715;51.570;6.036;2023-06-14T11:57:18;101535.44;;;30.84;23.18
49827;BME280;35715;51.570;6.036;2023-06-14T11:59:44;101538.03;;;31.00;23.40
49827;BME280;35715;51.570;6.036;2023-06-14T12:02:15;101532.28;;;31.61;23.29
49827;BME280;35715;51.570;6.036;2023-06-14T12:05:03;101525.34;;;31.32;23.48
49827;BME280;35715;51.570;6.036;2023-06-14T12:07:30;101537.78;;;31.34;23.59
49827;BME280;35715;51.570;6.036;2023-06-14T12:12:26;101529.22;;;30.81;25.12
49827;BME280;35715;51.570;6.036;2023-06-14T12:14:52;101526.72;;;30.47;26.59
49827;BME280;35715;51.570;6.036;2023-06-14T12:17:18;101516.97;;;30.33;25.89
49827;BME280;35715;51.570;6.036;2023-06-14T12:19:45;101512.66;;;29.89;26.59
49827;BME280;35715;51.570;6.036;2023-06-14T12:22:31;101514.44;;;29.56;26.28
49827;BME280;35715;51.570;6.036;2023-06-14T12:24:56;101528.47;;;28.90;25.94
49827;BME280;35715;51.570;6.036;2023-06-14T12:27:22;101521.22;;;28.49;27.74
49827;BME280;35715;51.570;6.036;2023-06-14T12:29:58;101522.97;;;28.42;28.05
49827;BME280;35715;51.570;6.036;2023-06-14T12:32:31;101513.25;;;28.49;27.30
49827;BME280;35715;51.570;6.036;2023-06-14T12:34:56;101516.00;;;28.63;27.42
49827;BME280;35715;51.570;6.036;2023-06-14T12:37:21;101522.88;;;28.21;27.15
49827;BME280;35715;51.570;6.036;2023-06-14T12:39:47;101515.75;;;28.09;26.52
49827;BME280;35715;51.570;6.036;2023-06-14T12:42:12;101516.56;;;28.02;27.60
49827;BME280;35715;51.570;6.036;2023-06-14T12:47:23;101516.63;;;28.12;27.60
49827;BME280;35715;51.570;6.036;2023-06-14T12:49:48;101515.78;;;28.20;27.13
49827;BME280;35715;51.570;6.036;2023-06-14T12:52:19;101515.16;;;28.73;28.20
49827;BME280;35715;51.570;6.036;2023-06-14T12:54:44;101510.78;;;28.86;26.99
49827;BME280;35715;51.570;6.036;2023-06-14T12:57:10;101513.44;;;28.80;26.14
49827;BME280;35715;51.570;6.036;2023-06-14T12:59:54;101522.94;;;28.28;26.84
49827;BME280;35715;51.570;6.036;2023-06-14T13:02:21;101521.13;;;28.27;27.44
49827;BME280;35715;51.570;6.036;2023-06-14T13:04:48;101528.41;;;28.59;28.77
49827;BME280;35715;51.570;6.036;2023-06-14T13:07:14;101524.97;;;28.96;26.87
49827;BME280;35715;51.570;6.036;2023-06-14T13:09:40;101521.50;;;29.22;27.64
49827;BME280;35715;51.570;6.036;2023-06-14T13:12:25;101513.53;;;29.31;27.26
49827;BME280;35715;51.570;6.036;2023-06-14T13:14:51;101519.75;;;29.28;27.27
49827;BME280;35715;51.570;6.036;2023-06-14T13:17:16;101506.47;;;29.33;26.25
49827;BME280;35715;51.570;6.036;2023-06-14T13:19:42;101521.38;;;28.77;27.66
49827;BME280;35715;51.570;6.036;2023-06-14T13:22:08;101519.63;;;28.82;26.72
49827;BME280;35715;51.570;6.036;2023-06-14T13:24:34;101517.84;;;28.89;26.91
49827;BME280;35715;51.570;6.036;2023-06-14T13:27:00;101528.41;;;28.62;27.45
49827;BME280;35715;51.570;6.036;2023-06-14T13:29:25;101519.50;;;28.51;27.33
49827;BME280;35715;51.570;6.036;2023-06-14T13:34:35;101509.63;;;28.21;28.48
49827;BME280;35715;51.570;6.036;2023-06-14T13:37:01;101521.03;;;28.06;28.60
49827;BME280;35715;51.570;6.036;2023-06-14T13:39:26;101515.78;;;28.20;27.66
49827;BME280;35715;51.570;6.036;2023-06-14T13:41:51;101512.38;;;28.45;28.00
49827;BME280;35715;51.570;6.036;2023-06-14T13:44:17;101504.44;;;28.52;27.00
49827;BME280;35715;51.570;6.036;2023-06-14T13:46:44;101505.22;;;28.32;27.40
49827;BME280;35715;51.570;6.036;2023-06-14T13:49:10;101508.81;;;28.43;27.52
49827;BME280;35715;51.570;6.036;2023-06-14T13:51:35;101512.47;;;28.61;27.73
49827;BME280;35715;51.570;6.036;2023-06-14T13:54:03;101508.94;;;28.60;26.90
49827;BME280;35715;51.570;6.036;2023-06-14T13:56:28;101522.06;;;28.36;26.54
49827;BME280;35715;51.570;6.036;2023-06-14T13:58:56;101514.97;;;28.31;27.67
49827;BME280;35715;51.570;6.036;2023-06-14T14:01:21;101498.16;;;28.31;26.34